Time;durP1;ratioP1;P1;durP2;ratioP2;P2;SDS_P1;SDS_P2;PMS_P1;PMS_P2;Temp;Humidity;BMP_temperature;BMP_pressure;BME280_temperature;BME280_humidity;BME280_pressure;Samples;Min_cycle;Max_cycle;Signal;HPM_P1;HPM_P2
2022/12/26 00:01:20;;;;;;;;;;;10.40;92.30;;;;;;5074641;28;19915;-34
2022/12/26 00:03:45;;;;;;;;;;;10.40;92.00;;;;;;5074377;28;19922;-34
2022/12/26 00:06:15;;;;;;;;;;;10.40;92.00;;;;;;5074124;28;19908;-34
2022/12/26 00:08:42;;;;;;;;;;;10.40;92.30;;;;;;5073985;28;19999;-34
2022/12/26 00:11:07;;;;;;;;;;;10.40;92.00;;;;;;5073955;28;19909;-34
2022/12/26 00:13:33;;;;;;;;;;;10.40;92.00;;;;;;5073902;28;20299;-36
2022/12/26 00:15:58;;;;;;;;;;;10.40;92.10;;;;;;5073915;28;19913;-35
2022/12/26 00:18:24;;;;;;;;;;;10.40;92.10;;;;;;5074043;28;19935;-34
2022/12/26 00:20:49;;;;;;;;;;;10.30;92.00;;;;;;5073788;28;19912;-37
2022/12/26 00:23:15;;;;;;;;;;;10.30;92.00;;;;;;5073804;28;20011;-34
2022/12/26 00:25:40;;;;;;;;;;;10.30;92.00;;;;;;5073960;28;19909;-34
2022/12/26 00:28:06;;;;;;;;;;;10.30;92.10;;;;;;5073668;28;19947;-34
2022/12/26 00:30:31;;;;;;;;;;;10.30;92.10;;;;;;5073868;28;19942;-35
2022/12/26 00:32:57;;;;;;;;;;;10.30;92.10;;;;;;5072193;28;19949;-33
2022/12/26 00:35:22;;;;;;;;;;;10.30;92.10;;;;;;5073553;28;19935;-36
2022/12/26 00:37:48;;;;;;;;;;;10.30;92.10;;;;;;5073521;28;19970;-33
2022/12/26 00:40:13;;;;;;;;;;;10.30;92.10;;;;;;5073636;28;19912;-34
2022/12/26 00:42:39;;;;;;;;;;;10.30;92.20;;;;;;5073426;28;20285;-34
2022/12/26 00:45:04;;;;;;;;;;;10.20;92.20;;;;;;5073462;28;19974;-35
2022/12/26 00:47:30;;;;;;;;;;;10.20;92.20;;;;;;5073407;28;19920;-34
2022/12/26 00:49:55;;;;;;;;;;;10.20;92.20;;;;;;5073345;28;20375;-34
2022/12/26 00:52:21;;;;;;;;;;;10.30;92.20;;;;;;5073345;28;19993;-34
2022/12/26 00:54:46;;;;;;;;;;;10.20;92.20;;;;;;5073313;28;19915;-33
2022/12/26 00:57:12;;;;;;;;;;;10.20;92.20;;;;;;5073249;28;19912;-46
2022/12/26 00:59:37;;;;;;;;;;;10.20;92.30;;;;;;5073253;28;19962;-37
2022/12/26 01:02:36;;;;;;;;;;;10.20;92.30;;;;;;5073199;28;19961;-34
2022/12/26 01:04:48;;;;;;;;;;;10.30;92.30;;;;;;5072981;28;19940;-38
2022/12/26 01:07:13;;;;;;;;;;;10.30;92.30;;;;;;5072274;28;19916;-37
2022/12/26 01:09:39;;;;;;;;;;;10.20;92.30;;;;;;5072842;28;19920;-34
2022/12/26 01:12:04;;;;;;;;;;;10.30;92.30;;;;;;5072938;28;20368;-34
2022/12/26 01:14:30;;;;;;;;;;;10.30;92.30;;;;;;5072829;28;19928;-34
2022/12/26 01:16:55;;;;;;;;;;;10.30;92.30;;;;;;5072643;28;19912;-34
2022/12/26 01:19:21;;;;;;;;;;;10.30;92.30;;;;;;5072694;28;19908;-35
2022/12/26 01:21:46;;;;;;;;;;;10.30;92.30;;;;;;5072744;28;19908;-34
2022/12/26 01:24:12;;;;;;;;;;;10.40;92.30;;;;;;5072589;28;19909;-35
2022/12/26 01:26:38;;;;;;;;;;;10.30;92.30;;;;;;5072507;28;19969;-34
2022/12/26 01:29:03;;;;;;;;;;;10.30;92.30;;;;;;5071185;28;19913;-35
2022/12/26 01:31:29;;;;;;;;;;;10.30;92.30;;;;;;5071091;28;19944;-34
2022/12/26 01:33:54;;;;;;;;;;;10.40;92.30;;;;;;5072744;28;19909;-32
2022/12/26 01:36:19;;;;;;;;;;;10.30;92.30;;;;;;5072321;28;19917;-34
2022/12/26 01:38:45;;;;;;;;;;;10.40;92.40;;;;;;5072412;28;19996;-35
2022/12/26 01:41:18;;;;;;;;;;;10.40;92.30;;;;;;5072273;28;20279;-36
2022/12/26 01:44:00;;;;;;;;;;;10.40;92.30;;;;;;5072397;28;19908;-36
2022/12/26 01:46:44;;;;;;;;;;;10.40;92.30;;;;;;5072391;28;19908;-34
2022/12/26 01:49:22;;;;;;;;;;;10.40;92.30;;;;;;5070809;28;19913;-34
2022/12/26 01:51:50;;;;;;;;;;;10.40;92.30;;;;;;5072139;28;19908;-32
2022/12/26 01:54:16;;;;;;;;;;;10.40;92.30;;;;;;5072335;28;19908;-33
2022/12/26 01:56:43;;;;;;;;;;;10.40;92.30;;;;;;5072161;28;20299;-35
2022/12/26 01:59:12;;;;;;;;;;;10.40;92.30;;;;;;5072176;28;19913;-35
2022/12/26 02:01:39;;;;;;;;;;;10.30;92.30;;;;;;5072058;28;19908;-36
2022/12/26 02:06:50;;;;;;;;;;;10.30;92.30;;;;;;5072260;28;19962;-35
2022/12/26 02:09:16;;;;;;;;;;;10.30;92.30;;;;;;5072288;28;19909;-35
2022/12/26 02:11:44;;;;;;;;;;;10.30;92.40;;;;;;5071985;28;19909;-35
2022/12/26 02:14:09;;;;;;;;;;;10.30;92.40;;;;;;5071693;28;19920;-38
2022/12/26 02:16:36;;;;;;;;;;;10.30;92.40;;;;;;5071790;28;19919;-33
2022/12/26 02:19:02;;;;;;;;;;;10.30;92.40;;;;;;5075481;28;19955;-35
2022/12/26 02:21:31;;;;;;;;;;;10.30;92.40;;;;;;5078518;28;19912;-32
2022/12/26 02:23:56;;;;;;;;;;;10.30;92.40;;;;;;5078412;28;19916;-34
2022/12/26 02:26:33;;;;;;;;;;;10.30;92.40;;;;;;5078656;28;19908;-34
2022/12/26 02:29:04;;;;;;;;;;;10.30;92.40;;;;;;5078390;28;20318;-32
2022/12/26 02:31:48;;;;;;;;;;;10.30;92.30;;;;;;5078319;28;19912;-33
2022/12/26 02:34:16;;;;;;;;;;;10.30;92.40;;;;;;5078591;28;19913;-34
2022/12/26 02:36:41;;;;;;;;;;;10.30;92.40;;;;;;5077003;28;19967;-34
2022/12/26 02:39:19;;;;;;;;;;;10.30;92.30;;;;;;5078481;28;19980;-33
2022/12/26 02:41:55;;;;;;;;;;;10.30;92.30;;;;;;5078316;28;19915;-35
2022/12/26 02:47:23;;;;;;;;;;;10.40;92.40;;;;;;5078615;28;19938;-35
2022/12/26 03:15:04;;;;;;;;;;;10.40;92.30;;;;;;5077839;28;19928;-35
2022/12/26 03:17:32;;;;;;;;;;;10.30;92.30;;;;;;5077798;28;19917;-36
2022/12/26 03:20:15;;;;;;;;;;;10.40;92.30;;;;;;5078125;28;19908;-36
2022/12/26 03:22:54;;;;;;;;;;;10.30;92.20;;;;;;5078150;28;19919;-34
2022/12/26 03:28:19;;;;;;;;;;;10.30;92.30;;;;;;5077961;28;19915;-35
2022/12/26 03:30:48;;;;;;;;;;;10.30;92.30;;;;;;5075173;28;19919;-36
2022/12/26 03:35:59;;;;;;;;;;;10.20;92.30;;;;;;5074787;28;19916;-35
2022/12/26 03:38:29;;;;;;;;;;;10.20;92.30;;;;;;5074588;28;20430;-35
2022/12/26 04:41:34;;;;;;;;;;;10.20;92.20;;;;;;5073871;28;19915;-36
2022/12/26 04:46:03;;;;;;;;;;;10.20;92.20;;;;;;5073791;28;19915;-37
2022/12/26 04:51:13;;;;;;;;;;;10.20;92.20;;;;;;5073586;28;20342;-35
2022/12/26 04:53:38;;;;;;;;;;;10.20;92.20;;;;;;5073409;28;19951;-35
2022/12/26 04:56:04;;;;;;;;;;;10.20;92.10;;;;;;5073159;28;20011;-35
2022/12/26 04:58:29;;;;;;;;;;;10.30;92.10;;;;;;5073191;28;19998;-36
2022/12/26 05:09:32;;;;;;;;;;;10.20;92.10;;;;;;5073499;28;20336;-40
2022/12/26 05:09:33;;;;;;;;;;;10.20;92.10;;;;;;5072895;28;19994;-36
2022/12/26 05:11:59;;;;;;;;;;;10.20;92.10;;;;;;5072856;28;20295;-35
2022/12/26 05:14:24;;;;;;;;;;;10.20;92.10;;;;;;5072657;28;19982;-41
2022/12/26 05:30:31;;;;;;;;;;;10.00;92.20;;;;;;5072340;28;20398;-35
2022/12/26 05:35:40;;;;;;;;;;;9.90;92.20;;;;;;5072194;28;20017;-35
2022/12/26 05:38:08;;;;;;;;;;;9.90;92.30;;;;;;5072213;28;19983;-40
2022/12/26 05:40:34;;;;;;;;;;;9.80;92.50;;;;;;5072353;28;20364;-35
2022/12/26 05:43:00;;;;;;;;;;;9.80;92.20;;;;;;5072188;28;19995;-34
2022/12/26 05:45:25;;;;;;;;;;;9.80;92.30;;;;;;5072256;28;20003;-36
2022/12/26 05:47:56;;;;;;;;;;;9.80;92.30;;;;;;5072275;28;20322;-35
2022/12/26 05:50:21;;;;;;;;;;;9.80;92.30;;;;;;5072112;28;19916;-35
2022/12/26 05:52:47;;;;;;;;;;;9.70;92.30;;;;;;5072263;28;19908;-36
2022/12/26 05:55:12;;;;;;;;;;;9.70;92.30;;;;;;5072016;28;19908;-35
2022/12/26 05:57:38;;;;;;;;;;;9.70;92.30;;;;;;5072116;28;20357;-36
2022/12/26 06:00:03;;;;;;;;;;;9.70;92.30;;;;;;5072177;28;19965;-35
2022/12/26 06:02:29;;;;;;;;;;;9.70;92.30;;;;;;5072009;28;19908;-35
2022/12/26 06:04:54;;;;;;;;;;;9.70;92.30;;;;;;5072126;28;20005;-36
2022/12/26 06:07:20;;;;;;;;;;;9.70;92.30;;;;;;5072238;28;19919;-34
2022/12/26 06:09:45;;;;;;;;;;;9.60;92.30;;;;;;5071949;28;19910;-36
2022/12/26 06:12:11;;;;;;;;;;;9.60;92.20;;;;;;5071861;28;19909;-35
2022/12/26 06:14:36;;;;;;;;;;;9.60;92.30;;;;;;5071983;28;19921;-35
2022/12/26 06:17:02;;;;;;;;;;;9.60;92.30;;;;;;5071851;28;19958;-45
2022/12/26 06:19:27;;;;;;;;;;;9.60;92.30;;;;;;5072148;28;20615;-35
2022/12/26 06:21:53;;;;;;;;;;;9.60;92.30;;;;;;5071936;28;19913;-35
2022/12/26 06:24:18;;;;;;;;;;;9.50;92.30;;;;;;5072170;28;19913;-35
2022/12/26 06:26:44;;;;;;;;;;;9.50;92.30;;;;;;5072053;28;19915;-36
2022/12/26 06:29:09;;;;;;;;;;;9.50;92.30;;;;;;5071978;28;19912;-34
2022/12/26 06:31:35;;;;;;;;;;;9.50;92.30;;;;;;5071864;28;20335;-36
2022/12/26 06:34:00;;;;;;;;;;;9.50;92.30;;;;;;5071854;28;19908;-35
2022/12/26 06:36:27;;;;;;;;;;;9.50;92.30;;;;;;5071954;28;19918;-36
2022/12/26 06:38:52;;;;;;;;;;;9.50;92.30;;;;;;5071783;28;19916;-36
2022/12/26 06:41:19;;;;;;;;;;;9.40;92.30;;;;;;5071801;28;19909;-36
2022/12/26 06:43:44;;;;;;;;;;;9.40;92.30;;;;;;5071741;28;19909;-35
2022/12/26 06:46:14;;;;;;;;;;;9.50;92.30;;;;;;5071732;28;19919;-36
2022/12/26 06:48:40;;;;;;;;;;;9.50;92.30;;;;;;5071522;28;19919;-37
2022/12/26 06:51:16;;;;;;;;;;;9.60;92.30;;;;;;5071515;28;19909;-36
2022/12/26 06:53:42;;;;;;;;;;;9.60;92.20;;;;;;5071470;28;20003;-36
2022/12/26 06:56:08;;;;;;;;;;;9.60;92.20;;;;;;5071354;28;19942;-37
2022/12/26 06:58:34;;;;;;;;;;;9.60;92.20;;;;;;5071508;28;19908;-35
2022/12/26 07:01:06;;;;;;;;;;;9.70;92.20;;;;;;5071416;28;20027;-35
2022/12/26 07:03:31;;;;;;;;;;;9.70;92.20;;;;;;5071539;28;19988;-35
2022/12/26 07:06:01;;;;;;;;;;;9.70;92.20;;;;;;5073415;28;19952;-36
2022/12/26 07:08:26;;;;;;;;;;;9.80;92.10;;;;;;5075056;28;19909;-36
2022/12/26 07:10:52;;;;;;;;;;;9.70;92.10;;;;;;5075194;28;20260;-34
2022/12/26 07:13:17;;;;;;;;;;;9.70;92.10;;;;;;5075114;28;19909;-36
2022/12/26 07:15:43;;;;;;;;;;;9.80;92.00;;;;;;5074759;28;20360;-32
2022/12/26 07:18:08;;;;;;;;;;;9.70;92.00;;;;;;5074896;28;19912;-34
2022/12/26 07:20:33;;;;;;;;;;;9.70;92.00;;;;;;5075110;28;19915;-35
2022/12/26 07:22:59;;;;;;;;;;;9.70;92.00;;;;;;5074938;28;20453;-34
2022/12/26 07:25:24;;;;;;;;;;;9.70;92.00;;;;;;5074723;28;19909;-34
2022/12/26 07:27:53;;;;;;;;;;;9.70;92.10;;;;;;5074928;28;20006;-33
2022/12/26 07:30:18;;;;;;;;;;;9.70;92.10;;;;;;5074920;28;19909;-34
2022/12/26 07:32:44;;;;;;;;;;;9.70;92.10;;;;;;5074676;28;20368;-34
2022/12/26 07:35:09;;;;;;;;;;;9.70;92.00;;;;;;5074630;28;19912;-34
2022/12/26 07:37:35;;;;;;;;;;;9.70;92.00;;;;;;5074496;28;19966;-46
2022/12/26 07:40:00;;;;;;;;;;;9.70;92.10;;;;;;5074486;28;19943;-34
2022/12/26 07:42:26;;;;;;;;;;;9.70;92.10;;;;;;5074471;28;20011;-34
2022/12/26 07:44:51;;;;;;;;;;;9.70;92.10;;;;;;5074460;28;20223;-34
2022/12/26 07:47:17;;;;;;;;;;;9.60;92.10;;;;;;5074378;28;19913;-34
2022/12/26 07:49:42;;;;;;;;;;;9.60;92.10;;;;;;5074403;28;19957;-33
2022/12/26 07:52:08;;;;;;;;;;;9.60;92.10;;;;;;5073055;28;19909;-40
2022/12/26 07:54:33;;;;;;;;;;;9.50;92.10;;;;;;5074531;28;19909;-34
2022/12/26 07:56:59;;;;;;;;;;;9.50;92.10;;;;;;5074219;28;19912;-35
2022/12/26 07:59:24;;;;;;;;;;;9.50;92.10;;;;;;5074204;28;20395;-36
2022/12/26 08:01:50;;;;;;;;;;;9.50;92.20;;;;;;5074219;28;20027;-35
2022/12/26 08:04:15;;;;;;;;;;;9.40;92.20;;;;;;5074364;28;19908;-35
2022/12/26 08:06:41;;;;;;;;;;;9.40;92.20;;;;;;5074269;28;19908;-35
2022/12/26 08:09:06;;;;;;;;;;;9.40;92.20;;;;;;5074218;28;19912;-35
2022/12/26 08:11:33;;;;;;;;;;;9.50;92.20;;;;;;5073963;28;19908;-35
2022/12/26 08:13:58;;;;;;;;;;;9.50;92.20;;;;;;5074068;28;19927;-36
2022/12/26 08:16:24;;;;;;;;;;;9.50;92.10;;;;;;5073652;28;19913;-35
2022/12/26 08:18:49;;;;;;;;;;;9.50;92.10;;;;;;5073934;28;19944;-34
2022/12/26 08:21:15;;;;;;;;;;;9.50;92.10;;;;;;5073818;28;19909;-35
2022/12/26 08:23:40;;;;;;;;;;;9.60;92.10;;;;;;5073890;28;19912;-34
2022/12/26 08:26:07;;;;;;;;;;;9.60;92.10;;;;;;5072540;28;19909;-35
2022/12/26 08:28:33;;;;;;;;;;;9.70;92.10;;;;;;5073780;28;20320;-36
2022/12/26 08:30:59;;;;;;;;;;;9.80;92.00;;;;;;5074127;28;19974;-35
2022/12/26 08:33:24;;;;;;;;;;;9.80;92.00;;;;;;5072342;28;20368;-35
2022/12/26 08:35:50;;;;;;;;;;;9.90;91.90;;;;;;5073754;28;19920;-35
2022/12/26 08:38:15;;;;;;;;;;;10.00;91.90;;;;;;5073368;28;19913;-35
2022/12/26 08:40:41;;;;;;;;;;;10.10;91.80;;;;;;5073471;28;20466;-34
2022/12/26 08:43:06;;;;;;;;;;;10.10;91.70;;;;;;5073565;28;20011;-35
2022/12/26 08:45:32;;;;;;;;;;;10.10;91.70;;;;;;5073325;28;19912;-34
2022/12/26 08:47:58;;;;;;;;;;;10.10;91.60;;;;;;5073413;28;20257;-35
2022/12/26 08:50:24;;;;;;;;;;;10.10;91.60;;;;;;5073363;28;20022;-37
2022/12/26 08:52:49;;;;;;;;;;;10.10;91.60;;;;;;5073270;28;20443;-35
2022/12/26 08:55:15;;;;;;;;;;;10.10;91.60;;;;;;5073107;28;19958;-35
2022/12/26 08:57:40;;;;;;;;;;;10.20;91.70;;;;;;5073174;28;19916;-35
2022/12/26 09:00:06;;;;;;;;;;;10.20;91.70;;;;;;5073255;28;19951;-33
2022/12/26 09:02:32;;;;;;;;;;;10.20;91.60;;;;;;5073355;28;19909;-37
2022/12/26 09:04:57;;;;;;;;;;;10.30;91.60;;;;;;5073327;28;19912;-35
2022/12/26 09:07:23;;;;;;;;;;;10.30;91.50;;;;;;5073158;28;20389;-42
2022/12/26 09:09:49;;;;;;;;;;;10.40;91.50;;;;;;5073376;28;19966;-33
2022/12/26 09:12:14;;;;;;;;;;;10.40;91.40;;;;;;5073030;28;20356;-35
2022/12/26 09:14:40;;;;;;;;;;;10.40;91.40;;;;;;5072862;28;19928;-35
2022/12/26 09:17:05;;;;;;;;;;;10.40;91.40;;;;;;5072642;28;19913;-35
2022/12/26 09:19:31;;;;;;;;;;;10.40;91.30;;;;;;5072880;28;20443;-34
2022/12/26 09:24:41;;;;;;;;;;;10.40;91.30;;;;;;5073102;28;19979;-44
2022/12/26 09:27:07;;;;;;;;;;;10.40;91.30;;;;;;5072703;28;19912;-35
2022/12/26 09:29:33;;;;;;;;;;;10.40;91.20;;;;;;5071987;28;20364;-35
2022/12/26 09:31:58;;;;;;;;;;;10.50;91.20;;;;;;5072443;28;20018;-37
2022/12/26 09:34:24;;;;;;;;;;;10.50;91.10;;;;;;5072465;28;19951;-38
2022/12/26 09:36:49;;;;;;;;;;;10.50;91.00;;;;;;5072672;28;19966;-34
2022/12/26 09:39:15;;;;;;;;;;;10.50;91.00;;;;;;5072766;28;20003;-35
2022/12/26 09:41:43;;;;;;;;;;;10.60;91.00;;;;;;5072478;28;19959;-35
2022/12/26 09:44:09;;;;;;;;;;;10.50;91.00;;;;;;5072414;28;19955;-35
2022/12/26 09:46:38;;;;;;;;;;;10.60;90.90;;;;;;5072306;28;20356;-35
2022/12/26 09:49:09;;;;;;;;;;;10.60;90.80;;;;;;5072237;28;19908;-34
2022/12/26 09:51:36;;;;;;;;;;;10.60;90.90;;;;;;5072222;28;19912;-35
2022/12/26 09:54:04;;;;;;;;;;;10.50;90.90;;;;;;5072221;28;19909;-43
2022/12/26 09:56:32;;;;;;;;;;;10.50;91.20;;;;;;5072059;28;19964;-36
2022/12/26 09:59:00;;;;;;;;;;;10.40;91.00;;;;;;5072569;28;19939;-36
2022/12/26 10:01:28;;;;;;;;;;;10.40;91.10;;;;;;5072139;28;19930;-36
2022/12/26 10:03:56;;;;;;;;;;;10.30;91.10;;;;;;5072436;28;20377;-34
2022/12/26 10:06:26;;;;;;;;;;;10.30;91.20;;;;;;5072111;28;20232;-35
2022/12/26 10:08:51;;;;;;;;;;;10.30;91.30;;;;;;5072255;28;19931;-33
2022/12/26 10:11:37;;;;;;;;;;;10.20;91.30;;;;;;5072086;28;19908;-35
2022/12/26 10:14:07;;;;;;;;;;;10.20;91.40;;;;;;5071281;28;20444;-34
2022/12/26 10:16:55;;;;;;;;;;;10.10;91.50;;;;;;5070490;28;19919;-34
2022/12/26 10:19:29;;;;;;;;;;;10.00;91.30;;;;;;5072230;28;19912;-35
2022/12/26 10:21:55;;;;;;;;;;;9.90;91.50;;;;;;5071912;28;19909;-32
2022/12/26 10:24:25;;;;;;;;;;;9.90;91.50;;;;;;5070674;28;19920;-34
2022/12/26 10:27:00;;;;;;;;;;;9.80;91.60;;;;;;5072111;28;19931;-33
2022/12/26 10:29:29;;;;;;;;;;;9.80;91.70;;;;;;5071850;28;19963;-34
2022/12/26 10:31:59;;;;;;;;;;;9.80;91.70;;;;;;5071741;28;19913;-34
2022/12/26 10:34:27;;;;;;;;;;;9.70;91.70;;;;;;5071857;28;19908;-36
2022/12/26 10:36:57;;;;;;;;;;;9.70;91.70;;;;;;5071968;28;19999;-44
2022/12/26 10:39:27;;;;;;;;;;;9.80;91.80;;;;;;5072547;28;19912;-33
2022/12/26 10:41:55;;;;;;;;;;;9.80;91.80;;;;;;5075782;28;20410;-34
2022/12/26 10:44:21;;;;;;;;;;;9.80;91.70;;;;;;5075614;28;19909;-35
2022/12/26 10:46:59;;;;;;;;;;;9.80;92.00;;;;;;5075667;28;19974;-34
2022/12/26 10:49:25;;;;;;;;;;;9.80;91.80;;;;;;5075563;28;19915;-35
2022/12/26 10:51:51;;;;;;;;;;;9.80;91.70;;;;;;5075759;28;19908;-35
2022/12/26 10:54:18;;;;;;;;;;;9.80;91.70;;;;;;5075521;28;20364;-36
2022/12/26 10:56:46;;;;;;;;;;;9.80;91.60;;;;;;5075810;28;20498;-34
2022/12/26 10:59:19;;;;;;;;;;;9.80;91.40;;;;;;5075353;28;19912;-34
2022/12/26 11:01:48;;;;;;;;;;;9.70;90.50;;;;;;5075285;28;19923;-35
2022/12/26 11:04:15;;;;;;;;;;;9.50;90.10;;;;;;5075545;28;19908;-35
2022/12/26 11:06:42;;;;;;;;;;;9.40;90.20;;;;;;5075166;28;19916;-35
2022/12/26 11:09:21;;;;;;;;;;;9.30;90.10;;;;;;5075529;28;20221;-38
2022/12/26 11:11:47;;;;;;;;;;;9.20;90.10;;;;;;5074935;28;19915;-39
2022/12/26 11:14:27;;;;;;;;;;;9.20;90.50;;;;;;5074768;28;19927;-42
2022/12/26 11:16:54;;;;;;;;;;;9.10;90.40;;;;;;5074699;28;19912;-34
2022/12/26 11:19:49;;;;;;;;;;;9.10;90.40;;;;;;5074977;28;19912;-35
2022/12/26 11:22:20;;;;;;;;;;;9.10;90.40;;;;;;5057177;28;20020;-34
2022/12/26 11:25:00;;;;;;;;;;;9.10;89.00;;;;;;5075213;28;19936;-43
2022/12/26 11:27:26;;;;;;;;;;;9.00;89.90;;;;;;5074849;28;20318;-35
2022/12/26 11:30:08;;;;;;;;;;;9.00;89.90;;;;;;5074960;28;19915;-35
2022/12/26 11:32:34;;;;;;;;;;;9.00;90.00;;;;;;5074696;28;19909;-37
2022/12/26 11:34:59;;;;;;;;;;;9.00;89.60;;;;;;5074834;28;19912;-36
2022/12/26 11:37:27;;;;;;;;;;;9.00;89.70;;;;;;5074704;28;19920;-33
2022/12/26 11:39:53;;;;;;;;;;;9.00;90.00;;;;;;5074545;28;19915;-34
2022/12/26 11:42:20;;;;;;;;;;;9.00;89.70;;;;;;5074577;28;19908;-34
2022/12/26 11:44:48;;;;;;;;;;;9.00;88.70;;;;;;5074542;28;19908;-33
2022/12/26 11:47:18;;;;;;;;;;;9.00;88.40;;;;;;5074662;28;19919;-36
2022/12/26 11:50:02;;;;;;;;;;;9.00;88.40;;;;;;5074471;28;19932;-35
2022/12/26 11:52:39;;;;;;;;;;;9.00;88.80;;;;;;5073758;28;20394;-35
2022/12/26 11:55:26;;;;;;;;;;;8.90;87.30;;;;;;5074280;28;19908;-34
2022/12/26 11:58:04;;;;;;;;;;;8.90;87.90;;;;;;5074115;28;19930;-34
2022/12/26 12:00:30;;;;;;;;;;;8.90;87.60;;;;;;5074297;28;19916;-35
2022/12/26 12:02:56;;;;;;;;;;;8.70;87.20;;;;;;5074149;28;19931;-34
2022/12/26 12:05:27;;;;;;;;;;;8.70;87.00;;;;;;5073986;28;19958;-44
2022/12/26 12:08:04;;;;;;;;;;;8.60;86.70;;;;;;5074066;28;19916;-33
2022/12/26 12:10:41;;;;;;;;;;;8.60;87.30;;;;;;5074095;28;19913;-34
2022/12/26 12:13:20;;;;;;;;;;;8.50;86.90;;;;;;5073824;28;19960;-34
2022/12/26 12:15:49;;;;;;;;;;;8.40;86.80;;;;;;5073909;28;20019;-35
2022/12/26 12:18:15;;;;;;;;;;;8.40;86.60;;;;;;5073696;28;19927;-34
2022/12/26 12:20:49;;;;;;;;;;;8.40;86.60;;;;;;5073858;28;20003;-35
2022/12/26 12:23:18;;;;;;;;;;;8.30;86.60;;;;;;5073827;28;19909;-34
2022/12/26 12:26:12;;;;;;;;;;;8.30;86.20;;;;;;5073617;28;19909;-35
2022/12/26 12:28:52;;;;;;;;;;;8.30;86.50;;;;;;5001568;28;20018;-35
2022/12/26 12:31:21;;;;;;;;;;;8.30;86.60;;;;;;5073614;28;19909;-35
2022/12/26 12:33:52;;;;;;;;;;;8.30;86.50;;;;;;5073533;28;19962;-34
2022/12/26 12:36:30;;;;;;;;;;;8.30;86.40;;;;;;5073423;28;19909;-37
2022/12/26 12:39:00;;;;;;;;;;;8.30;86.50;;;;;;5073069;28;20291;-35
2022/12/26 12:41:25;;;;;;;;;;;8.30;86.60;;;;;;5073161;28;20003;-35
2022/12/26 12:43:51;;;;;;;;;;;8.30;86.50;;;;;;5073136;28;20402;-33
2022/12/26 12:46:35;;;;;;;;;;;8.30;86.60;;;;;;5073053;28;19931;-35
2022/12/26 12:49:10;;;;;;;;;;;8.30;86.10;;;;;;5073340;28;19909;-35
2022/12/26 12:51:41;;;;;;;;;;;8.30;86.30;;;;;;5073154;28;19908;-34
2022/12/26 12:54:25;;;;;;;;;;;8.30;86.30;;;;;;5073152;28;19909;-35
2022/12/26 12:56:50;;;;;;;;;;;8.30;86.50;;;;;;5072868;28;19920;-35
2022/12/26 12:59:29;;;;;;;;;;;8.30;86.50;;;;;;5073459;28;19909;-35
2022/12/26 13:01:56;;;;;;;;;;;8.40;85.60;;;;;;5071665;28;19916;-33
2022/12/26 13:04:25;;;;;;;;;;;8.40;85.40;;;;;;5071854;28;19909;-35
2022/12/26 13:07:05;;;;;;;;;;;8.40;85.60;;;;;;5073398;28;20075;-35
2022/12/26 13:09:36;;;;;;;;;;;8.30;85.90;;;;;;5073266;28;20006;-35
2022/12/26 13:12:04;;;;;;;;;;;8.30;86.10;;;;;;5072844;28;19909;-35
2022/12/26 13:14:41;;;;;;;;;;;8.30;86.30;;;;;;5072815;28;19966;-35
2022/12/26 13:17:08;;;;;;;;;;;8.40;85.90;;;;;;5072668;28;20415;-35
2022/12/26 13:19:43;;;;;;;;;;;8.40;85.90;;;;;;5072579;28;19915;-35
2022/12/26 13:22:15;;;;;;;;;;;8.40;85.30;;;;;;5072778;28;20308;-35
2022/12/26 13:24:45;;;;;;;;;;;8.30;85.20;;;;;;5072464;28;19908;-35
2022/12/26 13:27:13;;;;;;;;;;;8.30;85.00;;;;;;5072738;28;20375;-35
2022/12/26 13:29:40;;;;;;;;;;;8.20;85.10;;;;;;5072479;28;19908;-35
2022/12/26 13:32:18;;;;;;;;;;;8.20;84.90;;;;;;5072560;28;19957;-34
2022/12/26 13:34:44;;;;;;;;;;;8.10;85.00;;;;;;5072479;28;20368;-34
2022/12/26 13:37:28;;;;;;;;;;;8.10;85.20;;;;;;5072337;28;19985;-34
2022/12/26 13:39:54;;;;;;;;;;;8.10;85.30;;;;;;5072448;28;19908;-34
2022/12/26 13:45:26;;;;;;;;;;;8.10;85.30;;;;;;5072483;28;19916;-34
2022/12/26 13:47:51;;;;;;;;;;;8.10;85.40;;;;;;5072187;28;19909;-35
2022/12/26 13:50:35;;;;;;;;;;;8.00;85.40;;;;;;5072456;28;19916;-34
2022/12/26 13:53:01;;;;;;;;;;;8.00;85.70;;;;;;5072235;28;19948;-35
2022/12/26 13:55:29;;;;;;;;;;;7.90;85.70;;;;;;5072214;28;19908;-33
2022/12/26 13:58:14;;;;;;;;;;;8.00;85.80;;;;;;5072175;28;20307;-34
2022/12/26 14:00:43;;;;;;;;;;;7.90;85.50;;;;;;5071529;28;19998;-35
2022/12/26 14:03:09;;;;;;;;;;;7.90;85.20;;;;;;5072019;28;20012;-35
2022/12/26 14:05:42;;;;;;;;;;;7.90;84.70;;;;;;5071702;28;19908;-34
2022/12/26 14:08:08;;;;;;;;;;;7.90;84.10;;;;;;5072068;28;19940;-35
2022/12/26 14:10:36;;;;;;;;;;;7.80;83.20;;;;;;5072499;28;19955;-35
2022/12/26 14:13:10;;;;;;;;;;;7.80;83.80;;;;;;5071870;28;19915;-36
2022/12/26 14:15:40;;;;;;;;;;;7.80;84.20;;;;;;5071504;28;19921;-35
2022/12/26 14:18:06;;;;;;;;;;;7.80;83.40;;;;;;5071567;28;19912;-33
2022/12/26 14:20:31;;;;;;;;;;;7.80;83.00;;;;;;5072009;28;20329;-37
2022/12/26 14:23:00;;;;;;;;;;;7.80;82.80;;;;;;5071953;28;20356;-34
2022/12/26 14:25:28;;;;;;;;;;;7.80;83.20;;;;;;5071547;28;19908;-34
2022/12/26 14:28:13;;;;;;;;;;;7.70;82.80;;;;;;5070078;28;20363;-34
2022/12/26 14:30:57;;;;;;;;;;;7.70;83.00;;;;;;5071400;28;19909;-35
2022/12/26 14:33:31;;;;;;;;;;;7.70;82.80;;;;;;5071703;28;19916;-34
2022/12/26 14:36:16;;;;;;;;;;;7.70;83.20;;;;;;5071716;28;20072;-35
2022/12/26 14:38:47;;;;;;;;;;;7.60;83.10;;;;;;5071492;28;19936;-35
2022/12/26 14:44:09;;;;;;;;;;;7.60;83.00;;;;;;5071634;28;19916;-44
2022/12/26 14:46:37;;;;;;;;;;;7.60;83.20;;;;;;5071760;28;20414;-34
2022/12/26 14:49:17;;;;;;;;;;;7.50;83.30;;;;;;5071708;28;20008;-34
2022/12/26 14:51:42;;;;;;;;;;;7.50;83.10;;;;;;5071627;28;19909;-34
2022/12/26 14:54:28;;;;;;;;;;;7.40;83.30;;;;;;5071826;28;19970;-34
2022/12/26 14:56:53;;;;;;;;;;;7.40;83.30;;;;;;5071107;28;19942;-32
2022/12/26 14:59:32;;;;;;;;;;;7.30;83.30;;;;;;5071487;28;19908;-34
2022/12/26 15:02:00;;;;;;;;;;;7.30;83.40;;;;;;5069897;28;19908;-34
2022/12/26 15:04:40;;;;;;;;;;;7.30;83.30;;;;;;5071453;28;19909;-34
2022/12/26 15:07:26;;;;;;;;;;;7.30;83.20;;;;;;5071536;28;19909;-35
2022/12/26 15:09:51;;;;;;;;;;;7.20;82.90;;;;;;5070948;28;19950;-37
2022/12/26 15:12:35;;;;;;;;;;;7.20;82.80;;;;;;5071592;28;19909;-34
2022/12/26 15:15:24;;;;;;;;;;;7.20;82.30;;;;;;5071203;28;20029;-35
2022/12/26 15:17:49;;;;;;;;;;;7.20;82.20;;;;;;5033305;28;20003;-36
2022/12/26 15:20:34;;;;;;;;;;;7.20;82.20;;;;;;5071306;28;19952;-34
2022/12/26 15:23:14;;;;;;;;;;;7.20;82.30;;;;;;5071196;28;19948;-38
2022/12/26 15:25:46;;;;;;;;;;;7.20;82.00;;;;;;5071313;28;19999;-34
2022/12/26 15:28:30;;;;;;;;;;;7.20;82.00;;;;;;5074695;28;19920;-37
2022/12/26 15:31:05;;;;;;;;;;;7.10;81.80;;;;;;5074776;28;19909;-41
2022/12/26 15:33:30;;;;;;;;;;;7.10;81.80;;;;;;5075048;28;19908;-40
2022/12/26 15:36:16;;;;;;;;;;;7.00;81.80;;;;;;5074521;28;19908;-35
2022/12/26 15:38:48;;;;;;;;;;;7.00;81.80;;;;;;5060179;28;19919;-36
2022/12/26 15:41:23;;;;;;;;;;;7.00;81.80;;;;;;5074398;28;19923;-38
2022/12/26 15:43:59;;;;;;;;;;;6.90;81.90;;;;;;5074145;28;19908;-35
2022/12/26 15:46:25;;;;;;;;;;;6.90;82.10;;;;;;5074507;28;19958;-38
2022/12/26 15:49:01;;;;;;;;;;;6.90;82.70;;;;;;5074470;28;19908;-34
2022/12/26 15:51:37;;;;;;;;;;;6.80;82.20;;;;;;5074545;28;19909;-34
2022/12/26 15:54:02;;;;;;;;;;;6.80;82.20;;;;;;5074120;28;19909;-34
2022/12/26 15:56:36;;;;;;;;;;;6.70;82.40;;;;;;5074163;28;19935;-36
2022/12/26 15:59:02;;;;;;;;;;;6.70;82.60;;;;;;5074258;28;19915;-36
2022/12/26 16:01:38;;;;;;;;;;;6.60;83.30;;;;;;5073989;28;19920;-34
2022/12/26 16:04:07;;;;;;;;;;;6.60;82.80;;;;;;5073982;28;19954;-33
2022/12/26 16:06:50;;;;;;;;;;;6.60;82.90;;;;;;5072888;28;19908;-34
2022/12/26 16:09:21;;;;;;;;;;;6.60;82.90;;;;;;5074050;28;19909;-34
2022/12/26 16:11:49;;;;;;;;;;;6.60;83.10;;;;;;5074004;28;20364;-34
2022/12/26 16:14:31;;;;;;;;;;;6.50;83.10;;;;;;5073583;28;19920;-34
2022/12/26 16:17:12;;;;;;;;;;;6.50;83.20;;;;;;5073963;28;19912;-34
2022/12/26 16:19:39;;;;;;;;;;;6.50;83.30;;;;;;5074233;28;19908;-34
2022/12/26 16:24:50;;;;;;;;;;;6.40;83.50;;;;;;5074081;28;20074;-33
2022/12/26 16:27:18;;;;;;;;;;;6.40;83.30;;;;;;5072397;28;19951;-35
2022/12/26 16:29:58;;;;;;;;;;;6.30;83.20;;;;;;5073699;28;19909;-34
2022/12/26 16:32:28;;;;;;;;;;;6.30;83.40;;;;;;5073830;28;19915;-34
2022/12/26 16:34:53;;;;;;;;;;;6.30;83.50;;;;;;5073470;28;19908;-34
2022/12/26 16:37:20;;;;;;;;;;;6.30;83.60;;;;;;5073670;28;19932;-35
2022/12/26 16:40:04;;;;;;;;;;;6.20;83.60;;;;;;5073759;28;20328;-34
2022/12/26 16:42:30;;;;;;;;;;;6.20;83.70;;;;;;5073335;28;19921;-34
2022/12/26 16:44:56;;;;;;;;;;;6.20;83.80;;;;;;5073228;28;19912;-36
2022/12/26 16:47:22;;;;;;;;;;;6.20;83.80;;;;;;5073347;28;19934;-34
2022/12/26 16:49:48;;;;;;;;;;;6.10;83.60;;;;;;5073243;28;19908;-34
2022/12/26 16:52:32;;;;;;;;;;;6.10;83.70;;;;;;5073448;28;19991;-33
2022/12/26 16:55:18;;;;;;;;;;;6.00;83.80;;;;;;5073342;28;19909;-33